sensor_id;sensor_type;location;lat;lon;timestamp;P1;durP1;ratioP1;P2;durP2;ratioP2
84519;SDS011;74755;43.084;0.132;2024-01-30T00:01:52;19.23;;;8.60;;
84519;SDS011;74755;43.084;0.132;2024-01-30T00:04:18;20.00;;;9.05;;
84519;SDS011;74755;43.084;0.132;2024-01-30T00:06:44;16.83;;;8.18;;
84519;SDS011;74755;43.084;0.132;2024-01-30T00:09:10;15.10;;;8.13;;
84519;SDS011;74755;43.084;0.132;2024-01-30T00:11:39;13.85;;;7.47;;
84519;SDS011;74755;43.084;0.132;2024-01-30T00:14:05;10.77;;;6.35;;
84519;SDS011;74755;43.084;0.132;2024-01-30T00:16:31;10.68;;;6.28;;
84519;SDS011;74755;43.084;0.132;2024-01-30T00:18:57;10.88;;;5.90;;
84519;SDS011;74755;43.084;0.132;2024-01-30T00:21:23;15.80;;;6.50;;
84519;SDS011;74755;43.084;0.132;2024-01-30T00:23:50;12.57;;;6.65;;
84519;SDS011;74755;43.084;0.132;2024-01-30T00:26:16;13.48;;;5.93;;
84519;SDS011;74755;43.084;0.132;2024-01-30T00:28:42;9.80;;;5.32;;
84519;SDS011;74755;43.084;0.132;2024-01-30T00:31:08;10.90;;;5.60;;
84519;SDS011;74755;43.084;0.132;2024-01-30T00:33:38;9.63;;;4.78;;
84519;SDS011;74755;43.084;0.132;2024-01-30T00:36:05;9.70;;;4.60;;
84519;SDS011;74755;43.084;0.132;2024-01-30T00:38:31;11.88;;;4.60;;
84519;SDS011;74755;43.084;0.132;2024-01-30T00:40:58;11.40;;;5.18;;
84519;SDS011;74755;43.084;0.132;2024-01-30T00:43:25;8.57;;;4.72;;
84519;SDS011;74755;43.084;0.132;2024-01-30T00:45:51;10.85;;;4.22;;
84519;SDS011;74755;43.084;0.132;2024-01-30T00:48:17;9.27;;;4.90;;
84519;SDS011;74755;43.084;0.132;2024-01-30T00:50:44;12.02;;;5.15;;
84519;SDS011;74755;43.084;0.132;2024-01-30T00:53:10;7.40;;;4.80;;
84519;SDS011;74755;43.084;0.132;2024-01-30T00:55:36;9.73;;;5.30;;
84519;SDS011;74755;43.084;0.132;2024-01-30T00:58:02;10.40;;;5.63;;
84519;SDS011;74755;43.084;0.132;2024-01-30T01:00:28;10.98;;;4.55;;
84519;SDS011;74755;43.084;0.132;2024-01-30T01:02:54;12.45;;;5.65;;
84519;SDS011;74755;43.084;0.132;2024-01-30T01:05:21;10.18;;;4.60;;
84519;SDS011;74755;43.084;0.132;2024-01-30T01:07:47;7.35;;;3.58;;
84519;SDS011;74755;43.084;0.132;2024-01-30T01:10:13;8.90;;;5.13;;
84519;SDS011;74755;43.084;0.132;2024-01-30T01:12:40;12.10;;;4.78;;
84519;SDS011;74755;43.084;0.132;2024-01-30T01:15:07;8.48;;;4.07;;
84519;SDS011;74755;43.084;0.132;2024-01-30T01:17:36;9.55;;;4.47;;
84519;SDS011;74755;43.084;0.132;2024-01-30T01:20:03;9.65;;;4.57;;
84519;SDS011;74755;43.084;0.132;2024-01-30T01:22:30;10.43;;;4.82;;
84519;SDS011;74755;43.084;0.132;2024-01-30T01:24:56;8.82;;;4.68;;
84519;SDS011;74755;43.084;0.132;2024-01-30T01:27:22;7.50;;;4.53;;
84519;SDS011;74755;43.084;0.132;2024-01-30T01:29:48;8.48;;;4.97;;
84519;SDS011;74755;43.084;0.132;2024-01-30T01:32:14;9.32;;;4.90;;
84519;SDS011;74755;43.084;0.132;2024-01-30T01:34:41;12.73;;;4.90;;
84519;SDS011;74755;43.084;0.132;2024-01-30T01:37:07;10.40;;;4.50;;
84519;SDS011;74755;43.084;0.132;2024-01-30T01:39:33;10.25;;;5.32;;
84519;SDS011;74755;43.084;0.132;2024-01-30T01:41:59;9.48;;;5.00;;
84519;SDS011;74755;43.084;0.132;2024-01-30T01:44:25;9.32;;;4.70;;
84519;SDS011;74755;43.084;0.132;2024-01-30T01:46:51;8.35;;;4.25;;
84519;SDS011;74755;43.084;0.132;2024-01-30T01:49:18;7.30;;;4.50;;
84519;SDS011;74755;43.084;0.132;2024-01-30T01:51:44;7.97;;;4.38;;
84519;SDS011;74755;43.084;0.132;2024-01-30T01:54:12;9.13;;;4.00;;
84519;SDS011;74755;43.084;0.132;2024-01-30T01:56:38;8.70;;;4.30;;
84519;SDS011;74755;43.084;0.132;2024-01-30T01:59:05;7.43;;;4.32;;
84519;SDS011;74755;43.084;0.132;2024-01-30T02:01:32;7.78;;;4.18;;
84519;SDS011;74755;43.084;0.132;2024-01-30T02:03:59;7.10;;;3.67;;
84519;SDS011;74755;43.084;0.132;2024-01-30T02:06:26;7.60;;;3.83;;
84519;SDS011;74755;43.084;0.132;2024-01-30T02:08:52;6.50;;;3.10;;
84519;SDS011;74755;43.084;0.132;2024-01-30T02:11:18;7.60;;;3.65;;
84519;SDS011;74755;43.084;0.132;2024-01-30T02:13:44;7.55;;;3.40;;
84519;SDS011;74755;43.084;0.132;2024-01-30T02:16:10;6.63;;;3.65;;
84519;SDS011;74755;43.084;0.132;2024-01-30T02:18:36;5.82;;;3.20;;
84519;SDS011;74755;43.084;0.132;2024-01-30T02:21:07;6.18;;;4.10;;
84519;SDS011;74755;43.084;0.132;2024-01-30T02:23:33;7.68;;;3.88;;
84519;SDS011;74755;43.084;0.132;2024-01-30T02:25:59;6.63;;;3.50;;
84519;SDS011;74755;43.084;0.132;2024-01-30T02:28:26;8.85;;;3.70;;
84519;SDS011;74755;43.084;0.132;2024-01-30T02:30:55;7.32;;;2.95;;
84519;SDS011;74755;43.084;0.132;2024-01-30T02:33:21;8.05;;;3.25;;
84519;SDS011;74755;43.084;0.132;2024-01-30T02:35:47;4.63;;;3.42;;
84519;SDS011;74755;43.084;0.132;2024-01-30T02:38:13;6.32;;;3.50;;
84519;SDS011;74755;43.084;0.132;2024-01-30T02:40:39;7.13;;;3.95;;
84519;SDS011;74755;43.084;0.132;2024-01-30T02:43:05;5.53;;;3.33;;
84519;SDS011;74755;43.084;0.132;2024-01-30T02:45:31;8.48;;;2.92;;
84519;SDS011;74755;43.084;0.132;2024-01-30T02:47:57;4.40;;;3.10;;
84519;SDS011;74755;43.084;0.132;2024-01-30T02:50:23;9.88;;;3.50;;
84519;SDS011;74755;43.084;0.132;2024-01-30T02:52:49;4.97;;;3.05;;
84519;SDS011;74755;43.084;0.132;2024-01-30T02:55:16;5.47;;;2.88;;
84519;SDS011;74755;43.084;0.132;2024-01-30T02:57:44;6.13;;;3.40;;
84519;SDS011;74755;43.084;0.132;2024-01-30T03:00:11;6.75;;;3.42;;
84519;SDS011;74755;43.084;0.132;2024-01-30T03:02:37;8.52;;;3.10;;
84519;SDS011;74755;43.084;0.132;2024-01-30T03:05:06;5.72;;;3.55;;
84519;SDS011;74755;43.084;0.132;2024-01-30T03:07:33;7.22;;;3.75;;
84519;SDS011;74755;43.084;0.132;2024-01-30T03:09:59;6.95;;;2.88;;
84519;SDS011;74755;43.084;0.132;2024-01-30T03:12:25;5.55;;;3.00;;
84519;SDS011;74755;43.084;0.132;2024-01-30T03:14:51;6.28;;;3.20;;
84519;SDS011;74755;43.084;0.132;2024-01-30T03:17:17;9.50;;;2.97;;
84519;SDS011;74755;43.084;0.132;2024-01-30T03:19:43;5.03;;;3.08;;
84519;SDS011;74755;43.084;0.132;2024-01-30T03:22:09;7.28;;;3.45;;
84519;SDS011;74755;43.084;0.132;2024-01-30T03:24:36;8.15;;;3.38;;
84519;SDS011;74755;43.084;0.132;2024-01-30T03:27:02;4.40;;;2.83;;
84519;SDS011;74755;43.084;0.132;2024-01-30T03:29:28;5.00;;;3.10;;
84519;SDS011;74755;43.084;0.132;2024-01-30T03:31:54;6.10;;;3.30;;
84519;SDS011;74755;43.084;0.132;2024-01-30T03:34:20;7.07;;;3.28;;
84519;SDS011;74755;43.084;0.132;2024-01-30T03:36:46;8.00;;;3.03;;
84519;SDS011;74755;43.084;0.132;2024-01-30T03:39:12;6.13;;;3.03;;
84519;SDS011;74755;43.084;0.132;2024-01-30T03:41:38;5.47;;;3.20;;
84519;SDS011;74755;43.084;0.132;2024-01-30T03:44:04;6.50;;;2.47;;
84519;SDS011;74755;43.084;0.132;2024-01-30T03:46:30;3.83;;;2.70;;
84519;SDS011;74755;43.084;0.132;2024-01-30T03:48:56;5.90;;;2.92;;
84519;SDS011;74755;43.084;0.132;2024-01-30T03:51:22;7.40;;;3.20;;
84519;SDS011;74755;43.084;0.132;2024-01-30T03:53:48;6.03;;;2.78;;
84519;SDS011;74755;43.084;0.132;2024-01-30T03:56:14;6.40;;;2.67;;
84519;SDS011;74755;43.084;0.132;2024-01-30T03:58:40;7.22;;;2.97;;
84519;SDS011;74755;43.084;0.132;2024-01-30T04:01:06;5.57;;;2.35;;
84519;SDS011;74755;43.084;0.132;2024-01-30T04:03:33;4.45;;;2.75;;
84519;SDS011;74755;43.084;0.132;2024-01-30T04:05:59;3.92;;;2.80;;
84519;SDS011;74755;43.084;0.132;2024-01-30T04:08:25;4.25;;;2.33;;
84519;SDS011;74755;43.084;0.132;2024-01-30T04:10:51;4.82;;;3.05;;
84519;SDS011;74755;43.084;0.132;2024-01-30T04:13:17;4.82;;;3.25;;
84519;SDS011;74755;43.084;0.132;2024-01-30T04:15:43;5.43;;;2.80;;
84519;SDS011;74755;43.084;0.132;2024-01-30T04:18:09;6.97;;;2.88;;
84519;SDS011;74755;43.084;0.132;2024-01-30T04:20:35;7.95;;;2.70;;
84519;SDS011;74755;43.084;0.132;2024-01-30T04:23:02;4.45;;;2.80;;
84519;SDS011;74755;43.084;0.132;2024-01-30T04:25:28;5.43;;;3.05;;
84519;SDS011;74755;43.084;0.132;2024-01-30T04:27:54;4.03;;;2.53;;
84519;SDS011;74755;43.084;0.132;2024-01-30T04:30:20;10.05;;;3.25;;
84519;SDS011;74755;43.084;0.132;2024-01-30T04:32:46;4.50;;;2.88;;
84519;SDS011;74755;43.084;0.132;2024-01-30T04:35:12;6.25;;;3.25;;
84519;SDS011;74755;43.084;0.132;2024-01-30T04:37:38;3.72;;;2.42;;
84519;SDS011;74755;43.084;0.132;2024-01-30T04:40:04;4.15;;;2.25;;
84519;SDS011;74755;43.084;0.132;2024-01-30T04:42:30;6.18;;;2.72;;
84519;SDS011;74755;43.084;0.132;2024-01-30T04:44:56;6.95;;;3.03;;
84519;SDS011;74755;43.084;0.132;2024-01-30T04:47:22;4.53;;;2.88;;
84519;SDS011;74755;43.084;0.132;2024-01-30T04:49:48;8.20;;;2.63;;
84519;SDS011;74755;43.084;0.132;2024-01-30T04:52:15;5.90;;;2.58;;
84519;SDS011;74755;43.084;0.132;2024-01-30T04:54:41;6.05;;;3.13;;
84519;SDS011;74755;43.084;0.132;2024-01-30T04:57:07;6.30;;;3.10;;
84519;SDS011;74755;43.084;0.132;2024-01-30T04:59:36;4.55;;;2.95;;
84519;SDS011;74755;43.084;0.132;2024-01-30T05:02:02;6.50;;;3.03;;
84519;SDS011;74755;43.084;0.132;2024-01-30T05:04:28;9.95;;;3.30;;
84519;SDS011;74755;43.084;0.132;2024-01-30T05:06:54;4.97;;;2.80;;
84519;SDS011;74755;43.084;0.132;2024-01-30T05:09:20;4.70;;;2.72;;
84519;SDS011;74755;43.084;0.132;2024-01-30T05:11:47;11.25;;;3.60;;
84519;SDS011;74755;43.084;0.132;2024-01-30T05:14:13;8.05;;;2.80;;
84519;SDS011;74755;43.084;0.132;2024-01-30T05:16:40;8.77;;;3.40;;
84519;SDS011;74755;43.084;0.132;2024-01-30T05:19:07;10.65;;;3.15;;
84519;SDS011;74755;43.084;0.132;2024-01-30T05:21:34;5.95;;;3.47;;
84519;SDS011;74755;43.084;0.132;2024-01-30T05:24:00;7.57;;;3.28;;
84519;SDS011;74755;43.084;0.132;2024-01-30T05:26:26;6.55;;;3.53;;
84519;SDS011;74755;43.084;0.132;2024-01-30T05:28:52;7.70;;;3.33;;
84519;SDS011;74755;43.084;0.132;2024-01-30T05:31:18;9.13;;;3.28;;
84519;SDS011;74755;43.084;0.132;2024-01-30T05:33:44;5.75;;;3.33;;
84519;SDS011;74755;43.084;0.132;2024-01-30T05:36:13;6.80;;;3.22;;
84519;SDS011;74755;43.084;0.132;2024-01-30T05:38:39;8.15;;;3.58;;
84519;SDS011;74755;43.084;0.132;2024-01-30T05:41:06;10.70;;;3.67;;
84519;SDS011;74755;43.084;0.132;2024-01-30T05:43:32;5.43;;;2.95;;
84519;SDS011;74755;43.084;0.132;2024-01-30T05:45:58;4.97;;;2.90;;
84519;SDS011;74755;43.084;0.132;2024-01-30T05:48:24;5.07;;;2.95;;
84519;SDS011;74755;43.084;0.132;2024-01-30T05:50:50;6.38;;;3.55;;
84519;SDS011;74755;43.084;0.132;2024-01-30T05:53:16;6.07;;;3.10;;
84519;SDS011;74755;43.084;0.132;2024-01-30T05:55:42;5.22;;;3.40;;
84519;SDS011;74755;43.084;0.132;2024-01-30T05:58:08;7.00;;;3.03;;
84519;SDS011;74755;43.084;0.132;2024-01-30T06:00:34;5.78;;;3.00;;
84519;SDS011;74755;43.084;0.132;2024-01-30T06:03:00;6.65;;;3.63;;
84519;SDS011;74755;43.084;0.132;2024-01-30T06:05:26;7.68;;;3.15;;
84519;SDS011;74755;43.084;0.132;2024-01-30T06:07:52;5.05;;;3.22;;
84519;SDS011;74755;43.084;0.132;2024-01-30T06:10:18;6.85;;;2.75;;
84519;SDS011;74755;43.084;0.132;2024-01-30T06:12:44;6.35;;;3.97;;
84519;SDS011;74755;43.084;0.132;2024-01-30T06:15:10;6.68;;;3.03;;
84519;SDS011;74755;43.084;0.132;2024-01-30T06:17:37;6.13;;;2.90;;
84519;SDS011;74755;43.084;0.132;2024-01-30T06:20:04;9.13;;;3.10;;
84519;SDS011;74755;43.084;0.132;2024-01-30T06:22:30;3.75;;;2.35;;
84519;SDS011;74755;43.084;0.132;2024-01-30T06:24:56;8.23;;;3.30;;
84519;SDS011;74755;43.084;0.132;2024-01-30T06:27:22;5.90;;;3.75;;
84519;SDS011;74755;43.084;0.132;2024-01-30T06:29:48;5.63;;;3.10;;
84519;SDS011;74755;43.084;0.132;2024-01-30T06:32:14;6.25;;;3.03;;
84519;SDS011;74755;43.084;0.132;2024-01-30T06:34:40;6.88;;;3.00;;
84519;SDS011;74755;43.084;0.132;2024-01-30T06:37:09;5.05;;;2.75;;
84519;SDS011;74755;43.084;0.132;2024-01-30T06:39:35;6.15;;;3.30;;
84519;SDS011;74755;43.084;0.132;2024-01-30T06:42:01;5.85;;;2.70;;
84519;SDS011;74755;43.084;0.132;2024-01-30T06:44:27;4.70;;;2.60;;
84519;SDS011;74755;43.084;0.132;2024-01-30T06:46:53;7.75;;;2.83;;
84519;SDS011;74755;43.084;0.132;2024-01-30T06:49:19;10.48;;;3.15;;
84519;SDS011;74755;43.084;0.132;2024-01-30T06:51:47;4.15;;;2.50;;
84519;SDS011;74755;43.084;0.132;2024-01-30T06:54:13;8.38;;;2.75;;
84519;SDS011;74755;43.084;0.132;2024-01-30T06:56:39;7.75;;;2.78;;
84519;SDS011;74755;43.084;0.132;2024-01-30T06:59:05;4.93;;;2.50;;
84519;SDS011;74755;43.084;0.132;2024-01-30T07:01:31;7.88;;;3.08;;
84519;SDS011;74755;43.084;0.132;2024-01-30T07:03:57;5.25;;;2.88;;
84519;SDS011;74755;43.084;0.132;2024-01-30T07:06:24;5.55;;;3.03;;
84519;SDS011;74755;43.084;0.132;2024-01-30T07:08:50;3.28;;;2.17;;
84519;SDS011;74755;43.084;0.132;2024-01-30T07:11:19;8.90;;;3.13;;
84519;SDS011;74755;43.084;0.132;2024-01-30T07:13:52;5.70;;;2.80;;
84519;SDS011;74755;43.084;0.132;2024-01-30T07:16:18;10.77;;;3.35;;
84519;SDS011;74755;43.084;0.132;2024-01-30T07:18:44;5.43;;;2.53;;
84519;SDS011;74755;43.084;0.132;2024-01-30T07:21:11;7.57;;;3.03;;
84519;SDS011;74755;43.084;0.132;2024-01-30T07:23:37;5.53;;;2.78;;
84519;SDS011;74755;43.084;0.132;2024-01-30T07:26:07;8.50;;;2.90;;
84519;SDS011;74755;43.084;0.132;2024-01-30T07:28:33;7.10;;;2.55;;
84519;SDS011;74755;43.084;0.132;2024-01-30T07:30:59;4.53;;;2.55;;
84519;SDS011;74755;43.084;0.132;2024-01-30T07:33:25;4.90;;;2.38;;
84519;SDS011;74755;43.084;0.132;2024-01-30T07:35:52;4.40;;;2.78;;
84519;SDS011;74755;43.084;0.132;2024-01-30T07:38:18;7.47;;;2.42;;
84519;SDS011;74755;43.084;0.132;2024-01-30T07:40:44;8.10;;;2.35;;
84519;SDS011;74755;43.084;0.132;2024-01-30T07:43:10;6.38;;;2.78;;
84519;SDS011;74755;43.084;0.132;2024-01-30T07:45:37;3.78;;;2.35;;
84519;SDS011;74755;43.084;0.132;2024-01-30T07:48:04;4.72;;;2.58;;
84519;SDS011;74755;43.084;0.132;2024-01-30T07:50:30;14.02;;;2.85;;
84519;SDS011;74755;43.084;0.132;2024-01-30T07:52:58;5.78;;;2.75;;
84519;SDS011;74755;43.084;0.132;2024-01-30T07:55:25;6.93;;;3.88;;
84519;SDS011;74755;43.084;0.132;2024-01-30T07:57:53;11.75;;;3.50;;
84519;SDS011;74755;43.084;0.132;2024-01-30T08:00:20;15.73;;;3.33;;
84519;SDS011;74755;43.084;0.132;2024-01-30T08:02:52;14.90;;;3.53;;
84519;SDS011;74755;43.084;0.132;2024-01-30T08:05:21;22.55;;;3.55;;
84519;SDS011;74755;43.084;0.132;2024-01-30T08:07:48;10.30;;;3.53;;
84519;SDS011;74755;43.084;0.132;2024-01-30T08:10:14;11.25;;;4.00;;
84519;SDS011;74755;43.084;0.132;2024-01-30T08:12:41;12.82;;;4.10;;
84519;SDS011;74755;43.084;0.132;2024-01-30T08:15:07;10.63;;;4.03;;
84519;SDS011;74755;43.084;0.132;2024-01-30T08:17:34;9.07;;;4.50;;
84519;SDS011;74755;43.084;0.132;2024-01-30T08:20:00;6.90;;;3.63;;
84519;SDS011;74755;43.084;0.132;2024-01-30T08:22:26;7.47;;;4.00;;
84519;SDS011;74755;43.084;0.132;2024-01-30T08:24:52;7.88;;;3.60;;
84519;SDS011;74755;43.084;0.132;2024-01-30T08:27:18;6.35;;;3.80;;
84519;SDS011;74755;43.084;0.132;2024-01-30T08:29:44;10.90;;;4.05;;
84519;SDS011;74755;43.084;0.132;2024-01-30T08:32:10;10.50;;;4.40;;
84519;SDS011;74755;43.084;0.132;2024-01-30T08:34:36;11.75;;;4.25;;
84519;SDS011;74755;43.084;0.132;2024-01-30T08:37:02;7.68;;;4.00;;
84519;SDS011;74755;43.084;0.132;2024-01-30T08:39:28;19.77;;;5.07;;
84519;SDS011;74755;43.084;0.132;2024-01-30T08:41:55;14.60;;;4.15;;
84519;SDS011;74755;43.084;0.132;2024-01-30T08:44:21;21.15;;;5.72;;
84519;SDS011;74755;43.084;0.132;2024-01-30T08:46:47;12.18;;;4.38;;
84519;SDS011;74755;43.084;0.132;2024-01-30T08:49:15;25.35;;;5.50;;
84519;SDS011;74755;43.084;0.132;2024-01-30T08:51:42;18.05;;;4.45;;
84519;SDS011;74755;43.084;0.132;2024-01-30T08:54:08;13.35;;;4.55;;
84519;SDS011;74755;43.084;0.132;2024-01-30T08:56:34;18.52;;;4.40;;
84519;SDS011;74755;43.084;0.132;2024-01-30T08:59:00;16.90;;;5.18;;
84519;SDS011;74755;43.084;0.132;2024-01-30T09:01:26;27.60;;;6.70;;
84519;SDS011;74755;43.084;0.132;2024-01-30T09:03:52;27.92;;;6.07;;
84519;SDS011;74755;43.084;0.132;2024-01-30T09:06:18;28.10;;;6.05;;
84519;SDS011;74755;43.084;0.132;2024-01-30T09:08:44;13.48;;;4.55;;
84519;SDS011;74755;43.084;0.132;2024-01-30T09:11:14;16.98;;;4.45;;
84519;SDS011;74755;43.084;0.132;2024-01-30T09:13:41;7.18;;;3.60;;
84519;SDS011;74755;43.084;0.132;2024-01-30T09:16:07;13.48;;;3.95;;
84519;SDS011;74755;43.084;0.132;2024-01-30T09:18:33;8.35;;;3.45;;
84519;SDS011;74755;43.084;0.132;2024-01-30T09:20:59;10.00;;;4.80;;
84519;SDS011;74755;43.084;0.132;2024-01-30T09:23:27;10.35;;;3.25;;
84519;SDS011;74755;43.084;0.132;2024-01-30T09:25:53;11.82;;;3.53;;
84519;SDS011;74755;43.084;0.132;2024-01-30T09:28:19;9.38;;;3.90;;
84519;SDS011;74755;43.084;0.132;2024-01-30T09:30:45;10.07;;;3.30;;
84519;SDS011;74755;43.084;0.132;2024-01-30T09:33:11;16.05;;;4.00;;
84519;SDS011;74755;43.084;0.132;2024-01-30T09:35:37;11.77;;;3.63;;
84519;SDS011;74755;43.084;0.132;2024-01-30T09:38:03;10.70;;;3.70;;
84519;SDS011;74755;43.084;0.132;2024-01-30T09:40:29;11.88;;;4.20;;
84519;SDS011;74755;43.084;0.132;2024-01-30T09:42:55;15.20;;;3.80;;
84519;SDS011;74755;43.084;0.132;2024-01-30T09:45:25;12.55;;;3.90;;
84519;SDS011;74755;43.084;0.132;2024-01-30T09:47:52;12.30;;;3.85;;
84519;SDS011;74755;43.084;0.132;2024-01-30T09:50:18;15.35;;;3.70;;
84519;SDS011;74755;43.084;0.132;2024-01-30T09:52:45;13.05;;;3.88;;
84519;SDS011;74755;43.084;0.132;2024-01-30T09:55:11;14.00;;;4.05;;
84519;SDS011;74755;43.084;0.132;2024-01-30T09:57:37;14.63;;;3.75;;
84519;SDS011;74755;43.084;0.132;2024-01-30T10:00:04;15.32;;;3.58;;
84519;SDS011;74755;43.084;0.132;2024-01-30T10:02:33;9.25;;;3.15;;
84519;SDS011;74755;43.084;0.132;2024-01-30T10:04:59;10.43;;;3.72;;
84519;SDS011;74755;43.084;0.132;2024-01-30T10:07:26;10.70;;;3.53;;
84519;SDS011;74755;43.084;0.132;2024-01-30T10:09:52;10.63;;;4.03;;
84519;SDS011;74755;43.084;0.132;2024-01-30T10:12:20;9.90;;;2.90;;
84519;SDS011;74755;43.084;0.132;2024-01-30T10:14:46;11.23;;;3.53;;
84519;SDS011;74755;43.084;0.132;2024-01-30T10:17:12;7.90;;;2.63;;
84519;SDS011;74755;43.084;0.132;2024-01-30T10:19:39;8.77;;;2.70;;
84519;SDS011;74755;43.084;0.132;2024-01-30T10:22:05;5.07;;;2.33;;
84519;SDS011;74755;43.084;0.132;2024-01-30T10:24:33;5.45;;;2.10;;
84519;SDS011;74755;43.084;0.132;2024-01-30T10:26:59;8.80;;;2.35;;
84519;SDS011;74755;43.084;0.132;2024-01-30T10:29:25;5.55;;;2.08;;
84519;SDS011;74755;43.084;0.132;2024-01-30T10:32:00;4.13;;;1.83;;
84519;SDS011;74755;43.084;0.132;2024-01-30T10:34:27;4.88;;;2.10;;
84519;SDS011;74755;43.084;0.132;2024-01-30T10:37:00;4.95;;;1.77;;
84519;SDS011;74755;43.084;0.132;2024-01-30T10:39:30;5.22;;;2.28;;
84519;SDS011;74755;43.084;0.132;2024-01-30T10:41:56;14.77;;;3.00;;
84519;SDS011;74755;43.084;0.132;2024-01-30T10:44:25;5.03;;;2.40;;
84519;SDS011;74755;43.084;0.132;2024-01-30T10:46:56;10.00;;;2.75;;
84519;SDS011;74755;43.084;0.132;2024-01-30T10:49:22;61.28;;;5.55;;
84519;SDS011;74755;43.084;0.132;2024-01-30T10:51:49;9.38;;;3.28;;
84519;SDS011;74755;43.084;0.132;2024-01-30T10:54:16;7.75;;;2.92;;
84519;SDS011;74755;43.084;0.132;2024-01-30T10:56:43;5.60;;;2.97;;
84519;SDS011;74755;43.084;0.132;2024-01-30T10:59:09;7.82;;;5.75;;
84519;SDS011;74755;43.084;0.132;2024-01-30T11:01:36;7.72;;;4.65;;
84519;SDS011;74755;43.084;0.132;2024-01-30T11:04:02;7.38;;;4.25;;
84519;SDS011;74755;43.084;0.132;2024-01-30T11:06:29;5.90;;;5.10;;
84519;SDS011;74755;43.084;0.132;2024-01-30T11:14:31;9.45;;;6.20;;
84519;SDS011;74755;43.084;0.132;2024-01-30T11:16:58;9.13;;;5.50;;
84519;SDS011;74755;43.084;0.132;2024-01-30T11:19:25;7.68;;;5.95;;
84519;SDS011;74755;43.084;0.132;2024-01-30T11:21:52;9.98;;;4.57;;
84519;SDS011;74755;43.084;0.132;2024-01-30T11:24:24;5.25;;;3.38;;
84519;SDS011;74755;43.084;0.132;2024-01-30T11:26:59;5.68;;;3.50;;
84519;SDS011;74755;43.084;0.132;2024-01-30T11:29:29;6.25;;;3.50;;
84519;SDS011;74755;43.084;0.132;2024-01-30T11:31:56;5.95;;;3.72;;
84519;SDS011;74755;43.084;0.132;2024-01-30T11:34:22;5.03;;;3.65;;
84519;SDS011;74755;43.084;0.132;2024-01-30T11:36:59;7.70;;;3.70;;
84519;SDS011;74755;43.084;0.132;2024-01-30T11:39:25;4.90;;;3.63;;
84519;SDS011;74755;43.084;0.132;2024-01-30T11:41:52;6.10;;;3.58;;
84519;SDS011;74755;43.084;0.132;2024-01-30T11:44:19;9.88;;;5.70;;
84519;SDS011;74755;43.084;0.132;2024-01-30T11:46:46;8.57;;;5.57;;
84519;SDS011;74755;43.084;0.132;2024-01-30T11:49:12;8.27;;;4.57;;
84519;SDS011;74755;43.084;0.132;2024-01-30T11:51:39;5.72;;;3.90;;
84519;SDS011;74755;43.084;0.132;2024-01-30T11:54:05;4.30;;;3.78;;
84519;SDS011;74755;43.084;0.132;2024-01-30T11:56:31;11.43;;;4.18;;
84519;SDS011;74755;43.084;0.132;2024-01-30T11:58:57;8.50;;;3.65;;
84519;SDS011;74755;43.084;0.132;2024-01-30T12:01:25;4.68;;;3.17;;
84519;SDS011;74755;43.084;0.132;2024-01-30T12:03:51;8.63;;;3.50;;
84519;SDS011;74755;43.084;0.132;2024-01-30T12:06:17;5.50;;;3.40;;
84519;SDS011;74755;43.084;0.132;2024-01-30T12:08:55;4.45;;;3.65;;
84519;SDS011;74755;43.084;0.132;2024-01-30T12:11:21;5.10;;;3.88;;
84519;SDS011;74755;43.084;0.132;2024-01-30T12:13:47;5.70;;;3.72;;
84519;SDS011;74755;43.084;0.132;2024-01-30T12:16:13;4.10;;;3.63;;
84519;SDS011;74755;43.084;0.132;2024-01-30T12:18:40;7.60;;;4.50;;
84519;SDS011;74755;43.084;0.132;2024-01-30T12:21:06;6.85;;;3.45;;
84519;SDS011;74755;43.084;0.132;2024-01-30T12:23:34;7.55;;;3.72;;
84519;SDS011;74755;43.084;0.132;2024-01-30T12:26:01;5.82;;;3.05;;
84519;SDS011;74755;43.084;0.132;2024-01-30T12:28:28;6.15;;;3.20;;
84519;SDS011;74755;43.084;0.132;2024-01-30T12:31:04;5.30;;;3.35;;
84519;SDS011;74755;43.084;0.132;2024-01-30T12:33:30;3.30;;;1.75;;
84519;SDS011;74755;43.084;0.132;2024-01-30T12:35:57;3.85;;;1.60;;
84519;SDS011;74755;43.084;0.132;2024-01-30T12:38:24;5.93;;;2.00;;
84519;SDS011;74755;43.084;0.132;2024-01-30T12:40:53;5.47;;;2.00;;
84519;SDS011;74755;43.084;0.132;2024-01-30T12:43:21;2.97;;;2.10;;
84519;SDS011;74755;43.084;0.132;2024-01-30T12:45:47;3.63;;;2.28;;
84519;SDS011;74755;43.084;0.132;2024-01-30T12:48:13;6.32;;;2.50;;
84519;SDS011;74755;43.084;0.132;2024-01-30T12:50:40;22.85;;;3.17;;
84519;SDS011;74755;43.084;0.132;2024-01-30T12:53:06;4.80;;;2.10;;
84519;SDS011;74755;43.084;0.132;2024-01-30T12:55:34;5.70;;;2.60;;
84519;SDS011;74755;43.084;0.132;2024-01-30T12:58:00;7.80;;;2.50;;
84519;SDS011;74755;43.084;0.132;2024-01-30T13:00:26;6.20;;;2.40;;
84519;SDS011;74755;43.084;0.132;2024-01-30T13:02:52;7.78;;;2.53;;
84519;SDS011;74755;43.084;0.132;2024-01-30T13:05:18;5.07;;;2.03;;
84519;SDS011;74755;43.084;0.132;2024-01-30T13:07:45;7.85;;;2.30;;
84519;SDS011;74755;43.084;0.132;2024-01-30T13:10:11;5.75;;;2.40;;
84519;SDS011;74755;43.084;0.132;2024-01-30T13:12:37;7.82;;;2.17;;
84519;SDS011;74755;43.084;0.132;2024-01-30T13:15:03;6.82;;;2.42;;
84519;SDS011;74755;43.084;0.132;2024-01-30T13:17:30;9.57;;;2.45;;
84519;SDS011;74755;43.084;0.132;2024-01-30T13:19:56;6.10;;;3.22;;
84519;SDS011;74755;43.084;0.132;2024-01-30T13:22:23;12.18;;;4.07;;
84519;SDS011;74755;43.084;0.132;2024-01-30T13:24:49;5.28;;;2.53;;
84519;SDS011;74755;43.084;0.132;2024-01-30T13:27:16;8.10;;;3.13;;
84519;SDS011;74755;43.084;0.132;2024-01-30T13:29:42;5.82;;;2.60;;
84519;SDS011;74755;43.084;0.132;2024-01-30T13:32:08;6.05;;;2.33;;
84519;SDS011;74755;43.084;0.132;2024-01-30T13:34:34;10.10;;;3.00;;
84519;SDS011;74755;43.084;0.132;2024-01-30T13:37:00;7.93;;;2.60;;
84519;SDS011;74755;43.084;0.132;2024-01-30T13:39:27;6.72;;;2.65;;
84519;SDS011;74755;43.084;0.132;2024-01-30T13:41:54;7.68;;;3.15;;
84519;SDS011;74755;43.084;0.132;2024-01-30T13:44:20;8.55;;;2.90;;
84519;SDS011;74755;43.084;0.132;2024-01-30T13:46:46;17.13;;;5.47;;
84519;SDS011;74755;43.084;0.132;2024-01-30T13:49:12;8.82;;;3.25;;
84519;SDS011;74755;43.084;0.132;2024-01-30T13:51:38;13.50;;;3.53;;
84519;SDS011;74755;43.084;0.132;2024-01-30T13:54:04;7.53;;;2.97;;
84519;SDS011;74755;43.084;0.132;2024-01-30T13:56:30;4.72;;;2.50;;
84519;SDS011;74755;43.084;0.132;2024-01-30T13:58:56;9.40;;;3.25;;
84519;SDS011;74755;43.084;0.132;2024-01-30T14:01:22;8.13;;;2.83;;
84519;SDS011;74755;43.084;0.132;2024-01-30T14:03:49;5.93;;;2.53;;
84519;SDS011;74755;43.084;0.132;2024-01-30T14:06:15;7.07;;;2.72;;
84519;SDS011;74755;43.084;0.132;2024-01-30T14:08:41;6.70;;;2.60;;
84519;SDS011;74755;43.084;0.132;2024-01-30T14:11:07;10.30;;;3.03;;
84519;SDS011;74755;43.084;0.132;2024-01-30T14:13:33;9.80;;;3.20;;
84519;SDS011;74755;43.084;0.132;2024-01-30T14:15:59;9.30;;;3.28;;
84519;SDS011;74755;43.084;0.132;2024-01-30T14:18:25;8.52;;;2.92;;
84519;SDS011;74755;43.084;0.132;2024-01-30T14:20:51;8.02;;;3.40;;
84519;SDS011;74755;43.084;0.132;2024-01-30T14:23:17;6.55;;;3.28;;
84519;SDS011;74755;43.084;0.132;2024-01-30T14:25:44;4.70;;;2.60;;
84519;SDS011;74755;43.084;0.132;2024-01-30T14:28:10;3.88;;;2.67;;
84519;SDS011;74755;43.084;0.132;2024-01-30T14:30:36;10.45;;;3.90;;
84519;SDS011;74755;43.084;0.132;2024-01-30T14:33:02;8.35;;;3.03;;
84519;SDS011;74755;43.084;0.132;2024-01-30T14:35:28;8.07;;;4.10;;
84519;SDS011;74755;43.084;0.132;2024-01-30T14:37:54;18.08;;;3.42;;
84519;SDS011;74755;43.084;0.132;2024-01-30T14:40:20;7.22;;;3.55;;
84519;SDS011;74755;43.084;0.132;2024-01-30T14:42:46;5.18;;;3.55;;
84519;SDS011;74755;43.084;0.132;2024-01-30T14:45:13;11.48;;;4.25;;
84519;SDS011;74755;43.084;0.132;2024-01-30T14:47:39;8.98;;;3.65;;